• Join FlightAware (Why Join?)
  • Login
  • US Flag 
09:16AM EDT


 

Airport Tracker/Info


-or-


 

Live Flight TrackerFlight Track Log ✈ N775NC ✈ 24-Oct-2013 ✈ KATL - KCHS

Flight Track Log - Related Links

Times and Time Zones

All times are in EDT time to prevent confusion due to time zone crossing. See the N775NC flight status page for this flight to view local times or setup timezone preferences in your user account.

Time Position Orientation Groundspeed Altitude Reporting Facility
EDT Latitude Longitude Course Direction KTS MPH feet Rate Location/Type
12:22PM 33.6333 -84.4667 81° East 122 140 2,200  Level Atlanta TRACON
12:23PM 33.6000 -84.5500 244° Southwest 255 293 4,700 2,580 Climbing Atlanta TRACON
12:24PM 33.5717 -84.6022 237° Southwest 323 372 6,800 2,280 Climbing Atlanta Center
12:25PM 33.5743 -84.0148 90° East  Level Estimated
12:25PM 33.5131 -84.6317 203° Southwest 274 315 8,800  Level Atlanta Center
12:26PM 33.5532 -83.8773 88° East  Level Estimated
12:26PM 33.4739 -84.5319 115° Southeast 235 270 9,800  Level Atlanta Center
12:27PM 33.5707 -83.7390 81° East  Level FlightAware Approximate
12:27PM 33.4681 -84.4222 94° East 287 330 11,600  Level Atlanta Center
12:28PM 33.5881 -83.6007 81° East  Level FlightAware Approximate
12:28PM 33.4789 -84.2953 84° East 343 395 12,500  Level Atlanta Center
12:29PM 33.4958 -84.1658 81° East 386 444 13,800 1,740 Climbing Atlanta Center
12:30PM 33.5167 -84.0264 80° East 416 479 16,000 1,740 Climbing Atlanta Center
12:31PM 33.5375 -83.8817 80° East 429 494 17,300 1,320 Climbing Atlanta Center
12:32PM 33.5600 -83.7347 80° East 437 503 18,700 1,500 Climbing Atlanta Center
12:33PM 33.5867 -83.5850 78° East 452 520 20,300 1,500 Climbing Atlanta Center
12:34PM 33.6092 -83.4353 80° East 452 520 21,700 1,200 Climbing Atlanta Center
12:35PM 33.6311 -83.2778 80° East 463 533 22,700 600 Climbing Atlanta Center
12:36PM 33.6444 -83.0981 85° East 480 552 23,000 120 Climbing Atlanta Center
12:37PM 33.6556 -82.9258 86° East 511 588 23,000  Level Atlanta Center
12:38PM 33.6706 -82.7558 84° East 516 594 23,000  Level Atlanta Center
12:39PM 33.6875 -82.5833 83° East 521 600 23,000  Level Atlanta Center
12:41PM 33.7056 -82.3058 85° East 522 601 23,000  Level Jacksonville Center
12:42PM 33.7047 -82.1486 90° East 522 601 23,000  Level Jacksonville Center
12:43PM 33.6642 -81.9867 107° East 513 590 23,000  Level Jacksonville Center
12:44PM 33.6106 -81.8253 112° Southeast 513 590 23,000  Level Jacksonville Center
12:45PM 33.5508 -81.6664 114° Southeast 513 590 23,000  Level Jacksonville Center
12:46PM 33.4908 -81.5103 115° Southeast 518 596 23,000  Level Jacksonville Center
12:47PM 33.4286 -81.3594 116° Southeast 518 596 23,000 -240 Level Jacksonville Center
12:48PM 33.3642 -81.2139 118° Southeast 504 580 22,600 -1,800 Descending Jacksonville Center
12:49PM 33.2994 -81.0661 118° Southeast 499 574 19,400 -3,180 Descending Jacksonville Center
12:50PM 33.2408 -80.9231 116° Southeast 487 560 16,300 -2,880 Descending Jacksonville Center
12:51PM 33.1864 -80.7853 115° Southeast 471 542 13,700 -2,700 Descending Jacksonville Center
12:52PM 33.1342 -80.6600 116° Southeast 441 507 10,900 -1,800 Descending Jacksonville Center
12:53PM 33.0883 -80.5422 115° Southeast 411 473 10,200 -1,080 Descending Jacksonville Center
12:54PM 33.0489 -80.4417 115° Southeast 367 422 8,800 -1,500 Descending Jacksonville Center
12:55PM 33.0028 -80.3364 118° Southeast 327 376 7,200 -1,560 Descending Jacksonville Center
12:56PM 32.9553 -80.2536 124° Southeast 314 361 5,700 -1,140 Descending Jacksonville Center
12:57PM 32.8933 -80.1886 139° Southeast 303 349 5,000 -780 Descending Jacksonville Center
12:58PM 32.8358 -80.1311 140° Southeast 288 331 4,200 -1,020 Descending Jacksonville Center
12:59PM 32.7944 -80.0606 125° Southeast 268 308 3,000 -1,200 Descending Jacksonville Center